sensor_id;sensor_type;location;lat;lon;timestamp;temperature;humidity
7598;DHT22;3840;59.32098800;18.06423600;2023-05-16T00:00:05;11.60;99.90
7598;DHT22;3840;59.32098800;18.06423600;2023-05-16T00:02:34;11.70;99.90
7598;DHT22;3840;59.32098800;18.06423600;2023-05-16T00:05:02;11.70;99.90
7598;DHT22;3840;59.32098800;18.06423600;2023-05-16T00:07:29;11.80;99.90
7598;DHT22;3840;59.32098800;18.06423600;2023-05-16T00:09:55;11.90;99.90
7598;DHT22;3840;59.32098800;18.06423600;2023-05-16T00:12:22;11.90;99.90
7598;DHT22;3840;59.32098800;18.06423600;2023-05-16T00:14:48;11.90;99.90
7598;DHT22;3840;59.32098800;18.06423600;2023-05-16T00:17:16;11.90;99.90
7598;DHT22;3840;59.32098800;18.06423600;2023-05-16T00:19:42;11.90;99.90
7598;DHT22;3840;59.32098800;18.06423600;2023-05-16T00:22:09;11.90;99.90
7598;DHT22;3840;59.32098800;18.06423600;2023-05-16T00:24:36;11.80;99.90
7598;DHT22;3840;59.32098800;18.06423600;2023-05-16T00:27:01;11.80;99.90
7598;DHT22;3840;59.32098800;18.06423600;2023-05-16T00:29:29;11.80;99.90
7598;DHT22;3840;59.32098800;18.06423600;2023-05-16T00:31:55;11.80;99.90
7598;DHT22;3840;59.32098800;18.06423600;2023-05-16T00:34:21;11.80;99.90
7598;DHT22;3840;59.32098800;18.06423600;2023-05-16T00:36:48;11.90;99.90
7598;DHT22;3840;59.32098800;18.06423600;2023-05-16T00:39:14;11.90;99.90
7598;DHT22;3840;59.32098800;18.06423600;2023-05-16T00:41:40;11.80;99.90
7598;DHT22;3840;59.32098800;18.06423600;2023-05-16T00:44:06;11.80;99.90
7598;DHT22;3840;59.32098800;18.06423600;2023-05-16T00:46:31;11.80;99.90
7598;DHT22;3840;59.32098800;18.06423600;2023-05-16T00:48:57;11.80;99.90
7598;DHT22;3840;59.32098800;18.06423600;2023-05-16T00:51:23;11.80;99.90
7598;DHT22;3840;59.32098800;18.06423600;2023-05-16T00:53:49;11.80;99.90
7598;DHT22;3840;59.32098800;18.06423600;2023-05-16T00:56:16;11.90;99.90
7598;DHT22;3840;59.32098800;18.06423600;2023-05-16T00:58:42;11.90;99.90
7598;DHT22;3840;59.32098800;18.06423600;2023-05-16T01:01:08;11.90;99.90
7598;DHT22;3840;59.32098800;18.06423600;2023-05-16T01:03:34;12.00;99.90
7598;DHT22;3840;59.32098800;18.06423600;2023-05-16T01:06:00;12.00;99.90
7598;DHT22;3840;59.32098800;18.06423600;2023-05-16T01:08:27;12.00;99.90
7598;DHT22;3840;59.32098800;18.06423600;2023-05-16T01:11:43;12.00;99.90
7598;DHT22;3840;59.32098800;18.06423600;2023-05-16T01:16:31;12.00;99.90
7598;DHT22;3840;59.32098800;18.06423600;2023-05-16T01:22:06;11.90;99.90
7598;DHT22;3840;59.32098800;18.06423600;2023-05-16T01:27:26;11.90;99.90
7598;DHT22;3840;59.32098800;18.06423600;2023-05-16T01:29:57;11.90;99.90
7598;DHT22;3840;59.32098800;18.06423600;2023-05-16T01:32:24;11.90;99.90
7598;DHT22;3840;59.32098800;18.06423600;2023-05-16T01:34:50;11.90;99.90
7598;DHT22;3840;59.32098800;18.06423600;2023-05-16T01:37:55;12.00;99.90
7598;DHT22;3840;59.32098800;18.06423600;2023-05-16T01:40:35;12.00;99.90
7598;DHT22;3840;59.32098800;18.06423600;2023-05-16T01:43:07;12.00;99.90
7598;DHT22;3840;59.32098800;18.06423600;2023-05-16T01:45:39;12.00;99.90
7598;DHT22;3840;59.32098800;18.06423600;2023-05-16T01:48:29;12.10;99.90
7598;DHT22;3840;59.32098800;18.06423600;2023-05-16T01:50:59;12.10;99.90
7598;DHT22;3840;59.32098800;18.06423600;2023-05-16T01:53:28;12.20;99.90
7598;DHT22;3840;59.32098800;18.06423600;2023-05-16T01:55:59;12.30;99.90
7598;DHT22;3840;59.32098800;18.06423600;2023-05-16T01:58:29;12.30;99.90
7598;DHT22;3840;59.32098800;18.06423600;2023-05-16T02:01:00;12.40;99.90
7598;DHT22;3840;59.32098800;18.06423600;2023-05-16T02:03:28;12.40;99.90
7598;DHT22;3840;59.32098800;18.06423600;2023-05-16T02:05:55;12.40;99.90
7598;DHT22;3840;59.32098800;18.06423600;2023-05-16T02:08:21;12.30;99.90
7598;DHT22;3840;59.32098800;18.06423600;2023-05-16T02:10:46;12.30;99.90
7598;DHT22;3840;59.32098800;18.06423600;2023-05-16T02:13:12;12.40;99.90
7598;DHT22;3840;59.32098800;18.06423600;2023-05-16T02:15:38;12.40;99.90
7598;DHT22;3840;59.32098800;18.06423600;2023-05-16T02:18:03;12.40;99.90
7598;DHT22;3840;59.32098800;18.06423600;2023-05-16T02:20:29;12.30;99.90
7598;DHT22;3840;59.32098800;18.06423600;2023-05-16T02:22:55;12.30;99.90
7598;DHT22;3840;59.32098800;18.06423600;2023-05-16T02:25:21;12.20;99.90
7598;DHT22;3840;59.32098800;18.06423600;2023-05-16T02:27:47;12.30;99.90
7598;DHT22;3840;59.32098800;18.06423600;2023-05-16T02:30:13;12.30;99.90
7598;DHT22;3840;59.32098800;18.06423600;2023-05-16T02:32:39;12.20;99.90
7598;DHT22;3840;59.32098800;18.06423600;2023-05-16T02:35:06;12.20;99.90
7598;DHT22;3840;59.32098800;18.06423600;2023-05-16T02:37:32;12.20;99.90
7598;DHT22;3840;59.32098800;18.06423600;2023-05-16T02:39:58;12.20;99.90
7598;DHT22;3840;59.32098800;18.06423600;2023-05-16T02:42:27;12.20;99.90
7598;DHT22;3840;59.32098800;18.06423600;2023-05-16T02:44:53;12.20;99.90
7598;DHT22;3840;59.32098800;18.06423600;2023-05-16T02:47:19;12.10;99.90
7598;DHT22;3840;59.32098800;18.06423600;2023-05-16T02:49:45;12.10;99.90
7598;DHT22;3840;59.32098800;18.06423600;2023-05-16T02:52:11;12.20;99.90
7598;DHT22;3840;59.32098800;18.06423600;2023-05-16T02:54:37;12.20;99.90
7598;DHT22;3840;59.32098800;18.06423600;2023-05-16T02:57:03;12.20;99.90
7598;DHT22;3840;59.32098800;18.06423600;2023-05-16T02:59:29;12.30;99.90
7598;DHT22;3840;59.32098800;18.06423600;2023-05-16T03:01:55;12.40;99.90
7598;DHT22;3840;59.32098800;18.06423600;2023-05-16T03:04:20;12.40;99.90
7598;DHT22;3840;59.32098800;18.06423600;2023-05-16T03:06:48;12.50;99.90
7598;DHT22;3840;59.32098800;18.06423600;2023-05-16T03:09:16;12.50;99.90
7598;DHT22;3840;59.32098800;18.06423600;2023-05-16T03:11:44;12.50;99.90
7598;DHT22;3840;59.32098800;18.06423600;2023-05-16T03:14:09;12.50;99.90
7598;DHT22;3840;59.32098800;18.06423600;2023-05-16T03:16:35;12.60;99.90
7598;DHT22;3840;59.32098800;18.06423600;2023-05-16T03:19:06;12.70;99.90
7598;DHT22;3840;59.32098800;18.06423600;2023-05-16T03:21:31;12.70;99.90
7598;DHT22;3840;59.32098800;18.06423600;2023-05-16T03:23:57;12.70;99.90
7598;DHT22;3840;59.32098800;18.06423600;2023-05-16T03:26:23;12.80;99.90
7598;DHT22;3840;59.32098800;18.06423600;2023-05-16T03:28:50;12.80;99.90
7598;DHT22;3840;59.32098800;18.06423600;2023-05-16T03:31:16;12.70;99.90
7598;DHT22;3840;59.32098800;18.06423600;2023-05-16T03:33:42;12.70;99.90
7598;DHT22;3840;59.32098800;18.06423600;2023-05-16T03:36:08;12.70;99.90
7598;DHT22;3840;59.32098800;18.06423600;2023-05-16T03:38:34;12.60;99.90
7598;DHT22;3840;59.32098800;18.06423600;2023-05-16T03:41:01;12.50;99.90
7598;DHT22;3840;59.32098800;18.06423600;2023-05-16T03:43:27;12.50;99.90
7598;DHT22;3840;59.32098800;18.06423600;2023-05-16T03:45:53;12.40;99.90
7598;DHT22;3840;59.32098800;18.06423600;2023-05-16T03:48:19;12.40;99.90
7598;DHT22;3840;59.32098800;18.06423600;2023-05-16T03:50:45;12.40;99.90
7598;DHT22;3840;59.32098800;18.06423600;2023-05-16T03:53:10;12.40;99.90
7598;DHT22;3840;59.32098800;18.06423600;2023-05-16T03:55:38;12.40;99.90
7598;DHT22;3840;59.32098800;18.06423600;2023-05-16T03:58:03;12.50;99.90
7598;DHT22;3840;59.32098800;18.06423600;2023-05-16T04:00:29;12.50;99.90
7598;DHT22;3840;59.32098800;18.06423600;2023-05-16T04:02:56;12.50;99.90
7598;DHT22;3840;59.32098800;18.06423600;2023-05-16T04:05:22;12.50;99.90
7598;DHT22;3840;59.32098800;18.06423600;2023-05-16T04:07:47;12.50;99.90
7598;DHT22;3840;59.32098800;18.06423600;2023-05-16T04:10:13;12.50;99.90
7598;DHT22;3840;59.32098800;18.06423600;2023-05-16T04:12:39;12.50;99.90
7598;DHT22;3840;59.32098800;18.06423600;2023-05-16T04:15:05;12.50;99.90
7598;DHT22;3840;59.32098800;18.06423600;2023-05-16T04:17:32;12.50;99.90
7598;DHT22;3840;59.32098800;18.06423600;2023-05-16T04:19:57;12.50;99.90
7598;DHT22;3840;59.32098800;18.06423600;2023-05-16T04:22:24;12.50;99.90
7598;DHT22;3840;59.32098800;18.06423600;2023-05-16T04:24:50;12.50;99.90
7598;DHT22;3840;59.32098800;18.06423600;2023-05-16T04:27:16;12.60;99.90
7598;DHT22;3840;59.32098800;18.06423600;2023-05-16T04:29:42;12.60;99.90
7598;DHT22;3840;59.32098800;18.06423600;2023-05-16T04:32:08;12.60;99.90
7598;DHT22;3840;59.32098800;18.06423600;2023-05-16T04:34:34;12.60;99.90
7598;DHT22;3840;59.32098800;18.06423600;2023-05-16T04:37:03;12.60;99.90
7598;DHT22;3840;59.32098800;18.06423600;2023-05-16T04:39:30;12.60;99.90
7598;DHT22;3840;59.32098800;18.06423600;2023-05-16T04:41:56;12.60;99.90
7598;DHT22;3840;59.32098800;18.06423600;2023-05-16T04:44:27;12.60;99.90
7598;DHT22;3840;59.32098800;18.06423600;2023-05-16T04:46:52;12.50;99.90
7598;DHT22;3840;59.32098800;18.06423600;2023-05-16T04:49:19;12.50;99.90
7598;DHT22;3840;59.32098800;18.06423600;2023-05-16T04:51:46;12.50;99.90
7598;DHT22;3840;59.32098800;18.06423600;2023-05-16T04:54:12;12.00;99.90
7598;DHT22;3840;59.32098800;18.06423600;2023-05-16T04:56:38;12.40;99.90
7598;DHT22;3840;59.32098800;18.06423600;2023-05-16T04:59:04;12.30;99.90
7598;DHT22;3840;59.32098800;18.06423600;2023-05-16T05:01:30;12.30;99.90
7598;DHT22;3840;59.32098800;18.06423600;2023-05-16T05:03:56;12.30;99.90
7598;DHT22;3840;59.32098800;18.06423600;2023-05-16T05:06:22;12.60;99.90
7598;DHT22;3840;59.32098800;18.06423600;2023-05-16T05:08:48;12.30;99.90
7598;DHT22;3840;59.32098800;18.06423600;2023-05-16T05:11:15;12.30;99.90
7598;DHT22;3840;59.32098800;18.06423600;2023-05-16T05:13:40;12.30;99.90
7598;DHT22;3840;59.32098800;18.06423600;2023-05-16T05:16:06;12.20;99.90
7598;DHT22;3840;59.32098800;18.06423600;2023-05-16T05:18:33;12.10;99.90
7598;DHT22;3840;59.32098800;18.06423600;2023-05-16T05:20:59;12.20;99.90
7598;DHT22;3840;59.32098800;18.06423600;2023-05-16T05:23:24;12.10;99.90
7598;DHT22;3840;59.32098800;18.06423600;2023-05-16T05:25:50;12.10;99.90
7598;DHT22;3840;59.32098800;18.06423600;2023-05-16T05:28:16;12.10;99.90
7598;DHT22;3840;59.32098800;18.06423600;2023-05-16T05:30:42;12.10;99.90
7598;DHT22;3840;59.32098800;18.06423600;2023-05-16T05:33:10;12.10;99.90
7598;DHT22;3840;59.32098800;18.06423600;2023-05-16T05:35:36;12.10;99.90
7598;DHT22;3840;59.32098800;18.06423600;2023-05-16T05:38:02;12.10;99.90
7598;DHT22;3840;59.32098800;18.06423600;2023-05-16T05:40:28;12.20;99.90
7598;DHT22;3840;59.32098800;18.06423600;2023-05-16T05:42:54;12.30;99.90
7598;DHT22;3840;59.32098800;18.06423600;2023-05-16T05:45:20;12.30;99.90
7598;DHT22;3840;59.32098800;18.06423600;2023-05-16T05:47:45;12.30;99.90
7598;DHT22;3840;59.32098800;18.06423600;2023-05-16T05:50:12;12.30;99.90
7598;DHT22;3840;59.32098800;18.06423600;2023-05-16T05:52:39;12.30;99.90
7598;DHT22;3840;59.32098800;18.06423600;2023-05-16T05:55:05;12.30;99.90
7598;DHT22;3840;59.32098800;18.06423600;2023-05-16T05:57:30;12.20;99.90
7598;DHT22;3840;59.32098800;18.06423600;2023-05-16T05:59:56;12.30;99.90
7598;DHT22;3840;59.32098800;18.06423600;2023-05-16T06:02:22;12.30;99.90
7598;DHT22;3840;59.32098800;18.06423600;2023-05-16T06:04:47;12.30;99.90
7598;DHT22;3840;59.32098800;18.06423600;2023-05-16T06:07:13;12.40;99.90
7598;DHT22;3840;59.32098800;18.06423600;2023-05-16T06:09:40;12.40;99.90
7598;DHT22;3840;59.32098800;18.06423600;2023-05-16T06:12:07;12.40;99.90
7598;DHT22;3840;59.32098800;18.06423600;2023-05-16T06:14:33;12.50;99.90
7598;DHT22;3840;59.32098800;18.06423600;2023-05-16T06:16:59;12.50;99.90
7598;DHT22;3840;59.32098800;18.06423600;2023-05-16T06:19:25;12.50;99.90
7598;DHT22;3840;59.32098800;18.06423600;2023-05-16T06:21:51;12.60;99.90
7598;DHT22;3840;59.32098800;18.06423600;2023-05-16T06:24:16;12.60;99.90
7598;DHT22;3840;59.32098800;18.06423600;2023-05-16T06:26:43;12.60;99.90
7598;DHT22;3840;59.32098800;18.06423600;2023-05-16T06:29:14;12.60;99.90
7598;DHT22;3840;59.32098800;18.06423600;2023-05-16T06:31:41;12.70;99.90
7598;DHT22;3840;59.32098800;18.06423600;2023-05-16T06:34:06;12.70;99.90
7598;DHT22;3840;59.32098800;18.06423600;2023-05-16T06:36:32;12.70;99.90
7598;DHT22;3840;59.32098800;18.06423600;2023-05-16T06:38:58;12.70;99.90
7598;DHT22;3840;59.32098800;18.06423600;2023-05-16T06:41:24;12.70;99.90
7598;DHT22;3840;59.32098800;18.06423600;2023-05-16T06:43:50;12.50;99.90
7598;DHT22;3840;59.32098800;18.06423600;2023-05-16T06:46:17;12.50;99.90
7598;DHT22;3840;59.32098800;18.06423600;2023-05-16T06:48:43;12.60;99.90
7598;DHT22;3840;59.32098800;18.06423600;2023-05-16T06:51:09;12.60;99.90
7598;DHT22;3840;59.32098800;18.06423600;2023-05-16T06:53:35;12.70;99.90
7598;DHT22;3840;59.32098800;18.06423600;2023-05-16T06:56:01;12.70;99.90
7598;DHT22;3840;59.32098800;18.06423600;2023-05-16T06:58:26;12.80;99.90
7598;DHT22;3840;59.32098800;18.06423600;2023-05-16T07:00:52;12.70;99.90
7598;DHT22;3840;59.32098800;18.06423600;2023-05-16T07:03:18;12.60;99.90
7598;DHT22;3840;59.32098800;18.06423600;2023-05-16T07:05:44;12.40;99.90
7598;DHT22;3840;59.32098800;18.06423600;2023-05-16T07:08:09;12.40;99.90
7598;DHT22;3840;59.32098800;18.06423600;2023-05-16T07:10:39;12.40;99.90
7598;DHT22;3840;59.32098800;18.06423600;2023-05-16T07:13:05;12.40;99.90
7598;DHT22;3840;59.32098800;18.06423600;2023-05-16T07:15:31;12.30;99.90
7598;DHT22;3840;59.32098800;18.06423600;2023-05-16T07:17:58;12.30;99.90
7598;DHT22;3840;59.32098800;18.06423600;2023-05-16T07:20:23;12.40;99.90
7598;DHT22;3840;59.32098800;18.06423600;2023-05-16T07:22:49;12.30;99.90
7598;DHT22;3840;59.32098800;18.06423600;2023-05-16T07:25:15;12.40;99.90
7598;DHT22;3840;59.32098800;18.06423600;2023-05-16T07:27:42;12.40;99.90
7598;DHT22;3840;59.32098800;18.06423600;2023-05-16T07:30:10;12.40;99.90
7598;DHT22;3840;59.32098800;18.06423600;2023-05-16T07:32:37;12.50;99.90
7598;DHT22;3840;59.32098800;18.06423600;2023-05-16T07:35:03;12.60;99.90
7598;DHT22;3840;59.32098800;18.06423600;2023-05-16T07:37:29;12.70;99.90
7598;DHT22;3840;59.32098800;18.06423600;2023-05-16T07:39:55;12.80;99.90
7598;DHT22;3840;59.32098800;18.06423600;2023-05-16T07:42:21;12.90;99.90
7598;DHT22;3840;59.32098800;18.06423600;2023-05-16T07:44:47;13.00;99.90
7598;DHT22;3840;59.32098800;18.06423600;2023-05-16T07:47:12;13.00;99.90
7598;DHT22;3840;59.32098800;18.06423600;2023-05-16T07:49:38;13.00;99.90
7598;DHT22;3840;59.32098800;18.06423600;2023-05-16T07:52:04;13.00;99.90
7598;DHT22;3840;59.32098800;18.06423600;2023-05-16T07:54:34;13.10;99.90
7598;DHT22;3840;59.32098800;18.06423600;2023-05-16T07:57:00;13.20;99.90
7598;DHT22;3840;59.32098800;18.06423600;2023-05-16T07:59:27;13.20;99.90
7598;DHT22;3840;59.32098800;18.06423600;2023-05-16T08:01:53;13.30;99.90
7598;DHT22;3840;59.32098800;18.06423600;2023-05-16T08:04:21;13.40;99.90
7598;DHT22;3840;59.32098800;18.06423600;2023-05-16T08:06:47;13.60;99.90
7598;DHT22;3840;59.32098800;18.06423600;2023-05-16T08:09:12;13.70;99.90
7598;DHT22;3840;59.32098800;18.06423600;2023-05-16T08:11:38;14.00;99.90
7598;DHT22;3840;59.32098800;18.06423600;2023-05-16T08:14:09;14.40;99.90
7598;DHT22;3840;59.32098800;18.06423600;2023-05-16T08:16:35;14.50;99.90
7598;DHT22;3840;59.32098800;18.06423600;2023-05-16T08:19:01;14.70;99.90
7598;DHT22;3840;59.32098800;18.06423600;2023-05-16T08:21:27;14.90;99.90
7598;DHT22;3840;59.32098800;18.06423600;2023-05-16T08:23:53;14.80;99.90
7598;DHT22;3840;59.32098800;18.06423600;2023-05-16T08:26:19;14.60;99.90
7598;DHT22;3840;59.32098800;18.06423600;2023-05-16T08:28:46;14.40;99.90
7598;DHT22;3840;59.32098800;18.06423600;2023-05-16T08:31:12;14.30;99.90
7598;DHT22;3840;59.32098800;18.06423600;2023-05-16T08:33:38;14.20;99.90
7598;DHT22;3840;59.32098800;18.06423600;2023-05-16T08:36:04;14.20;99.90
7598;DHT22;3840;59.32098800;18.06423600;2023-05-16T08:38:30;14.00;99.90
7598;DHT22;3840;59.32098800;18.06423600;2023-05-16T08:40:56;14.10;99.90
7598;DHT22;3840;59.32098800;18.06423600;2023-05-16T08:43:22;13.80;99.90
7598;DHT22;3840;59.32098800;18.06423600;2023-05-16T08:45:48;13.70;99.90
7598;DHT22;3840;59.32098800;18.06423600;2023-05-16T08:48:14;13.70;99.90
7598;DHT22;3840;59.32098800;18.06423600;2023-05-16T08:50:41;13.50;99.90
7598;DHT22;3840;59.32098800;18.06423600;2023-05-16T08:53:08;13.50;99.90
7598;DHT22;3840;59.32098800;18.06423600;2023-05-16T08:55:37;13.40;99.90
7598;DHT22;3840;59.32098800;18.06423600;2023-05-16T08:58:04;13.40;99.90
7598;DHT22;3840;59.32098800;18.06423600;2023-05-16T09:00:29;13.50;99.90
7598;DHT22;3840;59.32098800;18.06423600;2023-05-16T09:02:56;13.50;99.90
7598;DHT22;3840;59.32098800;18.06423600;2023-05-16T09:05:23;13.50;99.90
7598;DHT22;3840;59.32098800;18.06423600;2023-05-16T09:07:49;13.50;99.90
7598;DHT22;3840;59.32098800;18.06423600;2023-05-16T09:10:15;13.60;99.90
7598;DHT22;3840;59.32098800;18.06423600;2023-05-16T09:12:41;13.50;99.90
7598;DHT22;3840;59.32098800;18.06423600;2023-05-16T09:15:09;13.50;99.90
7598;DHT22;3840;59.32098800;18.06423600;2023-05-16T09:17:42;13.60;99.90
7598;DHT22;3840;59.32098800;18.06423600;2023-05-16T09:22:36;14.10;99.90
7598;DHT22;3840;59.32098800;18.06423600;2023-05-16T09:25:02;14.20;99.90
7598;DHT22;3840;59.32098800;18.06423600;2023-05-16T09:27:30;14.10;99.90
7598;DHT22;3840;59.32098800;18.06423600;2023-05-16T09:29:57;14.10;99.90
7598;DHT22;3840;59.32098800;18.06423600;2023-05-16T09:32:24;14.10;99.90
7598;DHT22;3840;59.32098800;18.06423600;2023-05-16T09:34:52;13.90;99.90
7598;DHT22;3840;59.32098800;18.06423600;2023-05-16T09:37:19;13.70;99.90
7598;DHT22;3840;59.32098800;18.06423600;2023-05-16T09:39:50;13.70;99.90
7598;DHT22;3840;59.32098800;18.06423600;2023-05-16T09:42:16;13.50;99.90
7598;DHT22;3840;59.32098800;18.06423600;2023-05-16T09:44:49;13.40;99.90
7598;DHT22;3840;59.32098800;18.06423600;2023-05-16T09:47:16;13.30;99.90
7598;DHT22;3840;59.32098800;18.06423600;2023-05-16T09:49:46;13.20;99.90
7598;DHT22;3840;59.32098800;18.06423600;2023-05-16T09:52:16;13.20;99.90
7598;DHT22;3840;59.32098800;18.06423600;2023-05-16T09:54:42;13.50;99.90
7598;DHT22;3840;59.32098800;18.06423600;2023-05-16T09:57:08;13.30;99.90
7598;DHT22;3840;59.32098800;18.06423600;2023-05-16T09:59:38;13.40;99.90
7598;DHT22;3840;59.32098800;18.06423600;2023-05-16T10:02:05;13.40;99.90
7598;DHT22;3840;59.32098800;18.06423600;2023-05-16T10:04:33;13.40;99.90
7598;DHT22;3840;59.32098800;18.06423600;2023-05-16T10:07:02;13.40;99.90
7598;DHT22;3840;59.32098800;18.06423600;2023-05-16T10:09:34;13.50;99.90
7598;DHT22;3840;59.32098800;18.06423600;2023-05-16T10:12:02;13.50;99.90
7598;DHT22;3840;59.32098800;18.06423600;2023-05-16T10:14:33;13.50;99.90
7598;DHT22;3840;59.32098800;18.06423600;2023-05-16T10:16:59;13.60;99.90
7598;DHT22;3840;59.32098800;18.06423600;2023-05-16T10:19:26;13.50;99.90
7598;DHT22;3840;59.32098800;18.06423600;2023-05-16T10:21:56;13.60;99.90
7598;DHT22;3840;59.32098800;18.06423600;2023-05-16T10:24:35;13.60;99.90
7598;DHT22;3840;59.32098800;18.06423600;2023-05-16T10:27:01;13.70;99.90
7598;DHT22;3840;59.32098800;18.06423600;2023-05-16T10:29:28;13.80;99.90
7598;DHT22;3840;59.32098800;18.06423600;2023-05-16T10:31:55;13.90;99.90
7598;DHT22;3840;59.32098800;18.06423600;2023-05-16T10:34:23;13.90;99.90
7598;DHT22;3840;59.32098800;18.06423600;2023-05-16T10:36:50;14.00;99.90
7598;DHT22;3840;59.32098800;18.06423600;2023-05-16T10:39:16;14.10;99.90
7598;DHT22;3840;59.32098800;18.06423600;2023-05-16T10:41:42;14.10;99.90
7598;DHT22;3840;59.32098800;18.06423600;2023-05-16T10:44:13;13.90;99.90
7598;DHT22;3840;59.32098800;18.06423600;2023-05-16T10:46:41;14.00;99.90
7598;DHT22;3840;59.32098800;18.06423600;2023-05-16T10:49:23;13.80;99.90
7598;DHT22;3840;59.32098800;18.06423600;2023-05-16T10:52:19;13.80;99.90
7598;DHT22;3840;59.32098800;18.06423600;2023-05-16T10:54:51;13.90;99.90
7598;DHT22;3840;59.32098800;18.06423600;2023-05-16T10:57:23;13.90;99.90
7598;DHT22;3840;59.32098800;18.06423600;2023-05-16T10:59:50;13.80;99.90
7598;DHT22;3840;59.32098800;18.06423600;2023-05-16T11:02:39;13.70;99.90
7598;DHT22;3840;59.32098800;18.06423600;2023-05-16T11:05:06;13.70;99.90
7598;DHT22;3840;59.32098800;18.06423600;2023-05-16T11:07:37;13.80;99.90
7598;DHT22;3840;59.32098800;18.06423600;2023-05-16T11:10:04;13.70;99.90
7598;DHT22;3840;59.32098800;18.06423600;2023-05-16T11:12:37;13.70;99.90
7598;DHT22;3840;59.32098800;18.06423600;2023-05-16T11:15:30;13.70;99.90
7598;DHT22;3840;59.32098800;18.06423600;2023-05-16T11:18:07;13.70;99.90
7598;DHT22;3840;59.32098800;18.06423600;2023-05-16T11:20:37;13.70;99.90
7598;DHT22;3840;59.32098800;18.06423600;2023-05-16T11:25:42;13.60;99.90
7598;DHT22;3840;59.32098800;18.06423600;2023-05-16T11:28:11;13.60;99.90
7598;DHT22;3840;59.32098800;18.06423600;2023-05-16T11:30:50;13.60;99.90
7598;DHT22;3840;59.32098800;18.06423600;2023-05-16T11:33:17;13.60;99.90
7598;DHT22;3840;59.32098800;18.06423600;2023-05-16T11:35:58;13.50;99.90
7598;DHT22;3840;59.32098800;18.06423600;2023-05-16T11:38:25;13.60;99.90
7598;DHT22;3840;59.32098800;18.06423600;2023-05-16T11:40:52;13.60;99.90
7598;DHT22;3840;59.32098800;18.06423600;2023-05-16T11:43:18;13.70;99.90
7598;DHT22;3840;59.32098800;18.06423600;2023-05-16T11:45:44;13.80;99.90
7598;DHT22;3840;59.32098800;18.06423600;2023-05-16T11:48:10;13.80;99.90
7598;DHT22;3840;59.32098800;18.06423600;2023-05-16T11:50:36;13.90;99.90
7598;DHT22;3840;59.32098800;18.06423600;2023-05-16T11:53:02;14.00;99.90
7598;DHT22;3840;59.32098800;18.06423600;2023-05-16T11:55:29;13.90;99.90
7598;DHT22;3840;59.32098800;18.06423600;2023-05-16T11:57:57;14.00;99.90
7598;DHT22;3840;59.32098800;18.06423600;2023-05-16T12:00:25;14.10;99.90
7598;DHT22;3840;59.32098800;18.06423600;2023-05-16T12:02:51;14.10;99.90
7598;DHT22;3840;59.32098800;18.06423600;2023-05-16T12:05:18;14.10;99.90
7598;DHT22;3840;59.32098800;18.06423600;2023-05-16T12:07:46;14.00;99.90
7598;DHT22;3840;59.32098800;18.06423600;2023-05-16T12:10:16;14.10;99.90
7598;DHT22;3840;59.32098800;18.06423600;2023-05-16T12:12:45;14.00;99.90
7598;DHT22;3840;59.32098800;18.06423600;2023-05-16T12:15:12;13.90;99.90
7598;DHT22;3840;59.32098800;18.06423600;2023-05-16T12:17:39;14.00;99.90
7598;DHT22;3840;59.32098800;18.06423600;2023-05-16T12:20:08;13.90;99.90
7598;DHT22;3840;59.32098800;18.06423600;2023-05-16T12:22:39;13.90;99.90
7598;DHT22;3840;59.32098800;18.06423600;2023-05-16T12:25:27;13.90;99.90
7598;DHT22;3840;59.32098800;18.06423600;2023-05-16T12:27:55;13.90;99.90
7598;DHT22;3840;59.32098800;18.06423600;2023-05-16T12:30:25;13.90;99.90
7598;DHT22;3840;59.32098800;18.06423600;2023-05-16T12:33:11;13.90;99.90
7598;DHT22;3840;59.32098800;18.06423600;2023-05-16T12:35:39;14.00;99.90
7598;DHT22;3840;59.32098800;18.06423600;2023-05-16T12:38:09;14.10;99.90
7598;DHT22;3840;59.32098800;18.06423600;2023-05-16T12:40:37;14.20;99.90
7598;DHT22;3840;59.32098800;18.06423600;2023-05-16T12:43:14;14.20;99.90
7598;DHT22;3840;59.32098800;18.06423600;2023-05-16T12:45:41;14.10;99.90
7598;DHT22;3840;59.32098800;18.06423600;2023-05-16T12:48:11;14.10;99.90
7598;DHT22;3840;59.32098800;18.06423600;2023-05-16T12:50:38;14.20;99.90
7598;DHT22;3840;59.32098800;18.06423600;2023-05-16T12:53:04;14.10;99.90
7598;DHT22;3840;59.32098800;18.06423600;2023-05-16T12:55:34;14.10;99.90
7598;DHT22;3840;59.32098800;18.06423600;2023-05-16T12:58:00;14.10;99.90
7598;DHT22;3840;59.32098800;18.06423600;2023-05-16T13:00:26;14.10;99.90
7598;DHT22;3840;59.32098800;18.06423600;2023-05-16T13:02:51;14.10;99.90
7598;DHT22;3840;59.32098800;18.06423600;2023-05-16T13:05:17;14.00;99.90
7598;DHT22;3840;59.32098800;18.06423600;2023-05-16T13:07:44;13.90;99.90
7598;DHT22;3840;59.32098800;18.06423600;2023-05-16T13:10:11;13.90;99.90
7598;DHT22;3840;59.32098800;18.06423600;2023-05-16T13:12:38;14.00;99.90
7598;DHT22;3840;59.32098800;18.06423600;2023-05-16T13:15:05;13.90;99.90
7598;DHT22;3840;59.32098800;18.06423600;2023-05-16T13:17:36;13.90;99.90
7598;DHT22;3840;59.32098800;18.06423600;2023-05-16T13:20:03;13.90;99.90
7598;DHT22;3840;59.32098800;18.06423600;2023-05-16T13:22:40;13.80;99.90
7598;DHT22;3840;59.32098800;18.06423600;2023-05-16T13:25:07;13.80;99.90
7598;DHT22;3840;59.32098800;18.06423600;2023-05-16T13:27:33;13.80;99.90
7598;DHT22;3840;59.32098800;18.06423600;2023-05-16T13:29:59;13.80;99.90
7598;DHT22;3840;59.32098800;18.06423600;2023-05-16T13:32:25;13.90;99.90
7598;DHT22;3840;59.32098800;18.06423600;2023-05-16T13:34:51;13.80;99.90
7598;DHT22;3840;59.32098800;18.06423600;2023-05-16T13:37:17;13.90;99.90
7598;DHT22;3840;59.32098800;18.06423600;2023-05-16T13:39:43;13.90;99.90
7598;DHT22;3840;59.32098800;18.06423600;2023-05-16T13:42:09;13.90;99.90
7598;DHT22;3840;59.32098800;18.06423600;2023-05-16T13:44:35;13.80;99.90
7598;DHT22;3840;59.32098800;18.06423600;2023-05-16T13:47:02;13.80;99.90
7598;DHT22;3840;59.32098800;18.06423600;2023-05-16T13:49:28;13.80;99.90